Airport ICAO


18:25 UTC

18°C


An affordable passengers' Moving Map for your aircraft. Made for the iPad and the iPhone
More information here

LFMC Le Cannet


Le Luc FRANCE   


METAR LFMC 231800Z AUTO VRB02KT 9999 ////// 18/01 Q1022 0h25min





NOTAMS

OPEN